sensor_id;sensor_type;location;lat;lon;timestamp;pressure;altitude;pressure_sealevel;temperature;humidity
10992;BME280;5549;47.028;15.514;2022-08-25T00:00:49;96734.59;;;20.90;74.34
10992;BME280;5549;47.028;15.514;2022-08-25T00:03:17;96731.91;;;20.90;74.14
10992;BME280;5549;47.028;15.514;2022-08-25T00:05:46;96733.75;;;20.89;74.46
10992;BME280;5549;47.028;15.514;2022-08-25T00:08:14;96732.94;;;20.89;74.79
10992;BME280;5549;47.028;15.514;2022-08-25T00:10:44;96720.59;;;20.88;74.64
10992;BME280;5549;47.028;15.514;2022-08-25T00:13:14;96722.44;;;20.87;74.99
10992;BME280;5549;47.028;15.514;2022-08-25T00:15:44;96730.63;;;20.86;75.10
10992;BME280;5549;47.028;15.514;2022-08-25T00:18:13;96730.00;;;20.84;75.26
10992;BME280;5549;47.028;15.514;2022-08-25T00:20:44;96728.34;;;20.83;75.73
10992;BME280;5549;47.028;15.514;2022-08-25T00:23:14;96718.69;;;20.81;75.46
10992;BME280;5549;47.028;15.514;2022-08-25T00:25:42;96720.34;;;20.83;75.76
10992;BME280;5549;47.028;15.514;2022-08-25T00:28:09;96719.31;;;20.84;75.81
10992;BME280;5549;47.028;15.514;2022-08-25T00:30:38;96719.31;;;20.84;75.59
10992;BME280;5549;47.028;15.514;2022-08-25T00:33:06;96714.00;;;20.84;75.69
10992;BME280;5549;47.028;15.514;2022-08-25T00:35:34;96707.81;;;20.83;75.47
10992;BME280;5549;47.028;15.514;2022-08-25T00:38:02;96711.50;;;20.82;75.70
10992;BME280;5549;47.028;15.514;2022-08-25T00:40:34;96705.69;;;20.78;75.58
10992;BME280;5549;47.028;15.514;2022-08-25T00:43:07;96699.53;;;20.78;75.58
10992;BME280;5549;47.028;15.514;2022-08-25T00:45:38;96699.53;;;20.78;75.80
10992;BME280;5549;47.028;15.514;2022-08-25T00:48:06;96700.72;;;20.75;75.90
10992;BME280;5549;47.028;15.514;2022-08-25T00:50:35;96698.63;;;20.71;76.44
10992;BME280;5549;47.028;15.514;2022-08-25T00:53:06;96701.47;;;20.69;76.91
10992;BME280;5549;47.028;15.514;2022-08-25T00:55:38;96693.03;;;20.66;76.96
10992;BME280;5549;47.028;15.514;2022-08-25T00:58:09;96691.56;;;20.63;76.99
10992;BME280;5549;47.028;15.514;2022-08-25T01:00:46;96688.25;;;20.61;77.14
10992;BME280;5549;47.028;15.514;2022-08-25T01:03:15;96686.59;;;20.60;77.13
10992;BME280;5549;47.028;15.514;2022-08-25T01:05:47;96689.47;;;20.59;77.11
10992;BME280;5549;47.028;15.514;2022-08-25T01:08:17;96685.31;;;20.56;76.79
10992;BME280;5549;47.028;15.514;2022-08-25T01:10:48;96685.31;;;20.56;76.73
10992;BME280;5549;47.028;15.514;2022-08-25T01:13:21;96681.84;;;20.56;76.40
10992;BME280;5549;47.028;15.514;2022-08-25T01:15:55;96679.34;;;20.54;76.50
10992;BME280;5549;47.028;15.514;2022-08-25T01:18:27;96677.06;;;20.51;76.44
10992;BME280;5549;47.028;15.514;2022-08-25T01:20:59;96674.97;;;20.46;76.60
10992;BME280;5549;47.028;15.514;2022-08-25T01:23:30;96675.97;;;20.45;76.61
10992;BME280;5549;47.028;15.514;2022-08-25T01:26:06;96675.34;;;20.43;76.46
10992;BME280;5549;47.028;15.514;2022-08-25T01:28:36;96673.88;;;20.41;76.70
10992;BME280;5549;47.028;15.514;2022-08-25T01:31:04;96671.38;;;20.39;76.62
10992;BME280;5549;47.028;15.514;2022-08-25T01:33:34;96670.91;;;20.36;76.76
10992;BME280;5549;47.028;15.514;2022-08-25T01:36:04;96669.44;;;20.33;76.52
10992;BME280;5549;47.028;15.514;2022-08-25T01:38:35;96675.59;;;20.34;76.35
10992;BME280;5549;47.028;15.514;2022-08-25T01:41:02;96674.78;;;20.33;76.20
10992;BME280;5549;47.028;15.514;2022-08-25T01:43:37;96681.88;;;20.26;76.48
10992;BME280;5549;47.028;15.514;2022-08-25T01:46:07;96682.78;;;20.18;76.92
10992;BME280;5549;47.028;15.514;2022-08-25T01:48:38;96672.88;;;20.12;76.92
10992;BME280;5549;47.028;15.514;2022-08-25T01:51:07;96672.22;;;20.10;77.28
10992;BME280;5549;47.028;15.514;2022-08-25T01:53:35;96666.25;;;20.08;77.31
10992;BME280;5549;47.028;15.514;2022-08-25T01:56:12;96668.28;;;20.06;77.29
10992;BME280;5549;47.028;15.514;2022-08-25T01:58:43;96667.00;;;20.02;77.61
10992;BME280;5549;47.028;15.514;2022-08-25T02:01:18;96666.44;;;19.92;78.03
10992;BME280;5549;47.028;15.514;2022-08-25T02:03:51;96665.16;;;19.88;77.78
10992;BME280;5549;47.028;15.514;2022-08-25T02:06:28;96659.84;;;19.88;77.32
10992;BME280;5549;47.028;15.514;2022-08-25T02:08:59;96659.09;;;19.94;76.90
10992;BME280;5549;47.028;15.514;2022-08-25T02:11:28;96658.91;;;19.96;76.48
10992;BME280;5549;47.028;15.514;2022-08-25T02:13:56;96654.78;;;19.93;76.38
10992;BME280;5549;47.028;15.514;2022-08-25T02:16:31;96651.94;;;19.95;76.53
10992;BME280;5549;47.028;15.514;2022-08-25T02:19:03;96652.28;;;19.92;76.46
10992;BME280;5549;47.028;15.514;2022-08-25T02:21:34;96652.94;;;19.94;76.38
10992;BME280;5549;47.028;15.514;2022-08-25T02:24:03;96655.16;;;19.90;76.50
10992;BME280;5549;47.028;15.514;2022-08-25T02:26:30;96663.50;;;19.87;77.20
10992;BME280;5549;47.028;15.514;2022-08-25T02:29:01;96655.34;;;19.89;77.40
10992;BME280;5549;47.028;15.514;2022-08-25T02:31:28;96653.94;;;19.93;77.42
10992;BME280;5549;47.028;15.514;2022-08-25T02:33:56;96657.06;;;19.96;77.34
10992;BME280;5549;47.028;15.514;2022-08-25T02:36:26;96654.03;;;19.99;77.08
10992;BME280;5549;47.028;15.514;2022-08-25T02:38:55;96653.66;;;20.02;77.05
10992;BME280;5549;47.028;15.514;2022-08-25T02:41:24;96657.63;;;20.06;76.85
10992;BME280;5549;47.028;15.514;2022-08-25T02:43:52;96647.41;;;20.10;76.93
10992;BME280;5549;47.028;15.514;2022-08-25T02:46:21;96649.69;;;20.13;76.52
10992;BME280;5549;47.028;15.514;2022-08-25T02:48:51;96648.50;;;20.15;76.23
10992;BME280;5549;47.028;15.514;2022-08-25T02:51:21;96647.88;;;20.13;76.01
10992;BME280;5549;47.028;15.514;2022-08-25T02:53:49;96643.34;;;20.14;75.93
10992;BME280;5549;47.028;15.514;2022-08-25T02:56:19;96635.16;;;20.15;75.64
10992;BME280;5549;47.028;15.514;2022-08-25T02:58:47;96638.47;;;20.17;75.60
10992;BME280;5549;47.028;15.514;2022-08-25T03:01:16;96637.47;;;20.18;75.33
10992;BME280;5549;47.028;15.514;2022-08-25T03:03:45;96645.47;;;20.18;75.40
10992;BME280;5549;47.028;15.514;2022-08-25T03:06:17;96638.47;;;20.17;75.53
10992;BME280;5549;47.028;15.514;2022-08-25T03:08:46;96639.31;;;20.18;75.36
10992;BME280;5549;47.028;15.514;2022-08-25T03:11:13;96633.16;;;20.17;75.27
10992;BME280;5549;47.028;15.514;2022-08-25T03:13:51;96626.97;;;20.17;75.48
10992;BME280;5549;47.028;15.514;2022-08-25T03:16:20;96623.41;;;20.10;75.87
10992;BME280;5549;47.028;15.514;2022-08-25T03:18:49;96626.81;;;20.04;76.48
10992;BME280;5549;47.028;15.514;2022-08-25T03:21:19;96615.53;;;20.02;76.24
10992;BME280;5549;47.028;15.514;2022-08-25T03:23:49;96613.69;;;20.02;76.44
10992;BME280;5549;47.028;15.514;2022-08-25T03:26:18;96618.63;;;20.05;76.44
10992;BME280;5549;47.028;15.514;2022-08-25T03:29:07;96620.94;;;20.08;76.12
10992;BME280;5549;47.028;15.514;2022-08-25T03:31:37;96614.59;;;20.09;75.51
10992;BME280;5549;47.028;15.514;2022-08-25T03:34:05;96616.25;;;20.10;75.63
10992;BME280;5549;47.028;15.514;2022-08-25T03:36:32;96619.53;;;20.12;75.60
10992;BME280;5549;47.028;15.514;2022-08-25T03:39:00;96621.56;;;20.10;75.90
10992;BME280;5549;47.028;15.514;2022-08-25T03:41:32;96623.22;;;20.11;75.73
10992;BME280;5549;47.028;15.514;2022-08-25T03:44:04;96623.22;;;20.11;75.61
10992;BME280;5549;47.028;15.514;2022-08-25T03:46:38;96628.94;;;20.08;75.94
10992;BME280;5549;47.028;15.514;2022-08-25T03:49:08;96630.97;;;20.06;76.08
10992;BME280;5549;47.028;15.514;2022-08-25T03:51:39;96632.16;;;20.04;76.74
10992;BME280;5549;47.028;15.514;2022-08-25T03:54:10;96629.69;;;20.02;76.64
10992;BME280;5549;47.028;15.514;2022-08-25T03:56:38;96630.88;;;20.00;76.70
10992;BME280;5549;47.028;15.514;2022-08-25T03:59:07;96622.06;;;19.99;76.63
10992;BME280;5549;47.028;15.514;2022-08-25T04:01:42;96629.78;;;19.94;77.24
10992;BME280;5549;47.028;15.514;2022-08-25T04:04:14;96624.63;;;19.93;77.68
10992;BME280;5549;47.028;15.514;2022-08-25T04:06:43;96625.47;;;19.93;77.56
10992;BME280;5549;47.028;15.514;2022-08-25T04:09:14;96622.44;;;19.96;77.23
10992;BME280;5549;47.028;15.514;2022-08-25T04:11:44;96620.84;;;20.02;76.92
10992;BME280;5549;47.028;15.514;2022-08-25T04:14:14;96618.19;;;20.02;77.61
10992;BME280;5549;47.028;15.514;2022-08-25T04:16:44;96613.69;;;20.02;77.52
10992;BME280;5549;47.028;15.514;2022-08-25T04:19:12;96613.13;;;20.07;77.24
10992;BME280;5549;47.028;15.514;2022-08-25T04:21:40;96611.66;;;20.04;77.78
10992;BME280;5549;47.028;15.514;2022-08-25T04:24:12;96610.00;;;20.03;77.80
10992;BME280;5549;47.028;15.514;2022-08-25T04:26:45;96614.97;;;20.06;77.93
10992;BME280;5549;47.028;15.514;2022-08-25T04:29:19;96616.34;;;20.02;78.12
10992;BME280;5549;47.028;15.514;2022-08-25T04:31:49;96616.63;;;20.07;77.83
10992;BME280;5549;47.028;15.514;2022-08-25T04:34:19;96620.56;;;20.11;78.04
10992;BME280;5549;47.028;15.514;2022-08-25T04:36:50;96619.53;;;20.12;77.96
10992;BME280;5549;47.028;15.514;2022-08-25T04:39:20;96631.59;;;20.08;78.20
10992;BME280;5549;47.028;15.514;2022-08-25T04:41:50;96630.22;;;20.12;77.99
10992;BME280;5549;47.028;15.514;2022-08-25T04:44:20;96630.47;;;20.17;78.15
10992;BME280;5549;47.028;15.514;2022-08-25T04:46:49;96636.63;;;20.18;78.02
10992;BME280;5549;47.028;15.514;2022-08-25T04:49:17;96639.38;;;20.25;77.77
10992;BME280;5549;47.028;15.514;2022-08-25T04:51:45;96642.31;;;20.30;77.75
10992;BME280;5549;47.028;15.514;2022-08-25T04:54:15;96638.25;;;20.34;77.48
10992;BME280;5549;47.028;15.514;2022-08-25T04:56:47;96643.69;;;20.40;77.43
10992;BME280;5549;47.028;15.514;2022-08-25T04:59:18;96643.13;;;20.45;77.44
10992;BME280;5549;47.028;15.514;2022-08-25T05:01:46;96653.16;;;20.43;77.95
10992;BME280;5549;47.028;15.514;2022-08-25T05:04:20;96648.84;;;20.42;79.02
10992;BME280;5549;47.028;15.514;2022-08-25T05:06:51;96647.44;;;20.46;78.35
10992;BME280;5549;47.028;15.514;2022-08-25T05:09:22;96649.75;;;20.49;77.55
10992;BME280;5549;47.028;15.514;2022-08-25T05:11:49;96647.53;;;20.53;76.42
10992;BME280;5549;47.028;15.514;2022-08-25T05:14:17;96652.66;;;20.54;74.86
10992;BME280;5549;47.028;15.514;2022-08-25T05:16:49;96650.00;;;20.54;73.96
10992;BME280;5549;47.028;15.514;2022-08-25T05:19:18;96644.47;;;20.56;74.03
10992;BME280;5549;47.028;15.514;2022-08-25T05:21:46;96652.94;;;20.59;74.14
10992;BME280;5549;47.028;15.514;2022-08-25T05:24:13;96649.25;;;20.60;73.46
10992;BME280;5549;47.028;15.514;2022-08-25T05:26:44;96644.94;;;20.59;73.41
10992;BME280;5549;47.028;15.514;2022-08-25T05:29:12;96645.63;;;20.68;73.29
10992;BME280;5549;47.028;15.514;2022-08-25T05:31:40;96651.22;;;20.73;72.21
10992;BME280;5549;47.028;15.514;2022-08-25T05:34:11;96647.44;;;20.82;72.05
10992;BME280;5549;47.028;15.514;2022-08-25T05:36:42;96640.97;;;20.91;72.22
10992;BME280;5549;47.028;15.514;2022-08-25T05:39:10;96648.84;;;20.99;71.82
10992;BME280;5549;47.028;15.514;2022-08-25T05:41:40;96647.69;;;21.08;71.63
10992;BME280;5549;47.028;15.514;2022-08-25T05:44:10;96651.50;;;21.21;71.78
10992;BME280;5549;47.028;15.514;2022-08-25T05:46:38;96652.59;;;21.26;71.26
10992;BME280;5549;47.028;15.514;2022-08-25T05:49:06;96651.19;;;21.30;70.24
10992;BME280;5549;47.028;15.514;2022-08-25T05:51:35;96652.88;;;21.38;70.07
10992;BME280;5549;47.028;15.514;2022-08-25T05:54:05;96651.72;;;21.47;70.22
10992;BME280;5549;47.028;15.514;2022-08-25T05:56:32;96659.59;;;21.55;70.23
10992;BME280;5549;47.028;15.514;2022-08-25T05:59:03;96654.09;;;21.63;70.85
10992;BME280;5549;47.028;15.514;2022-08-25T06:01:32;96657.63;;;21.70;72.59
10992;BME280;5549;47.028;15.514;2022-08-25T06:04:19;96659.31;;;21.78;72.47
10992;BME280;5549;47.028;15.514;2022-08-25T06:06:50;96665.97;;;21.89;72.13
10992;BME280;5549;47.028;15.514;2022-08-25T06:09:23;96653.88;;;21.99;71.60
10992;BME280;5549;47.028;15.514;2022-08-25T06:11:51;96660.34;;;22.12;71.41
10992;BME280;5549;47.028;15.514;2022-08-25T06:14:22;96670.28;;;22.24;71.10
10992;BME280;5549;47.028;15.514;2022-08-25T06:16:53;96664.16;;;22.37;70.99
10992;BME280;5549;47.028;15.514;2022-08-25T06:19:22;96661.34;;;22.52;70.61
10992;BME280;5549;47.028;15.514;2022-08-25T06:21:53;96658.94;;;22.63;70.06
10992;BME280;5549;47.028;15.514;2022-08-25T06:24:24;96665.34;;;22.69;69.48
10992;BME280;5549;47.028;15.514;2022-08-25T06:26:55;96666.38;;;22.75;69.07
10992;BME280;5549;47.028;15.514;2022-08-25T06:29:25;96667.25;;;22.82;68.75
10992;BME280;5549;47.028;15.514;2022-08-25T06:31:55;96667.06;;;22.90;68.59
10992;BME280;5549;47.028;15.514;2022-08-25T06:34:25;96665.00;;;22.92;68.29
10992;BME280;5549;47.028;15.514;2022-08-25T06:36:55;96668.69;;;22.91;68.46
10992;BME280;5549;47.028;15.514;2022-08-25T06:39:24;96667.28;;;22.95;68.31
10992;BME280;5549;47.028;15.514;2022-08-25T06:41:52;96673.88;;;22.99;68.12
10992;BME280;5549;47.028;15.514;2022-08-25T06:44:20;96669.75;;;23.03;67.49
10992;BME280;5549;47.028;15.514;2022-08-25T06:46:48;96675.72;;;23.05;67.07
10992;BME280;5549;47.028;15.514;2022-08-25T06:49:18;96675.50;;;23.00;66.84
10992;BME280;5549;47.028;15.514;2022-08-25T06:51:46;96668.09;;;23.02;67.68
10992;BME280;5549;47.028;15.514;2022-08-25T06:54:13;96670.56;;;22.97;68.25
10992;BME280;5549;47.028;15.514;2022-08-25T06:56:42;96671.59;;;22.96;68.19
10992;BME280;5549;47.028;15.514;2022-08-25T06:59:12;96677.97;;;22.88;67.77
10992;BME280;5549;47.028;15.514;2022-08-25T07:01:42;96669.31;;;22.93;68.16
10992;BME280;5549;47.028;15.514;2022-08-25T07:04:10;96678.81;;;23.02;67.79
10992;BME280;5549;47.028;15.514;2022-08-25T07:06:40;96679.25;;;23.12;67.66
10992;BME280;5549;47.028;15.514;2022-08-25T07:09:10;96674.31;;;23.22;67.51
10992;BME280;5549;47.028;15.514;2022-08-25T07:11:42;96674.50;;;23.27;66.32
10992;BME280;5549;47.028;15.514;2022-08-25T07:14:13;96681.31;;;23.23;66.61
10992;BME280;5549;47.028;15.514;2022-08-25T07:16:42;96685.03;;;23.22;67.00
10992;BME280;5549;47.028;15.514;2022-08-25T07:19:10;96686.25;;;23.20;66.39
10992;BME280;5549;47.028;15.514;2022-08-25T07:21:41;96678.44;;;23.25;66.57
10992;BME280;5549;47.028;15.514;2022-08-25T07:24:12;96688.53;;;23.29;66.50
10992;BME280;5549;47.028;15.514;2022-08-25T07:26:44;96695.31;;;23.25;66.62
10992;BME280;5549;47.028;15.514;2022-08-25T07:29:18;96693.47;;;23.19;66.09
10992;BME280;5549;47.028;15.514;2022-08-25T07:31:46;96698.00;;;23.19;67.11
10992;BME280;5549;47.028;15.514;2022-08-25T07:34:14;96693.25;;;23.14;66.82
10992;BME280;5549;47.028;15.514;2022-08-25T07:37:00;96692.44;;;23.14;67.27
10992;BME280;5549;47.028;15.514;2022-08-25T07:39:33;96684.59;;;23.12;67.59
10992;BME280;5549;47.028;15.514;2022-08-25T07:42:05;96695.53;;;23.11;68.60
10992;BME280;5549;47.028;15.514;2022-08-25T07:44:33;96690.78;;;23.06;68.57
10992;BME280;5549;47.028;15.514;2022-08-25T07:47:03;96695.50;;;23.04;68.61
10992;BME280;5549;47.028;15.514;2022-08-25T07:49:33;96693.84;;;23.03;68.89
10992;BME280;5549;47.028;15.514;2022-08-25T07:52:01;96687.47;;;23.04;68.79
10992;BME280;5549;47.028;15.514;2022-08-25T07:54:30;96689.53;;;23.09;69.46
10992;BME280;5549;47.028;15.514;2022-08-25T07:56:58;96704.38;;;23.11;69.02
10992;BME280;5549;47.028;15.514;2022-08-25T07:59:27;96699.63;;;23.13;68.59
10992;BME280;5549;47.028;15.514;2022-08-25T08:01:55;96701.72;;;23.18;68.49
10992;BME280;5549;47.028;15.514;2022-08-25T08:04:22;96701.09;;;23.22;68.58
10992;BME280;5549;47.028;15.514;2022-08-25T08:06:52;96696.16;;;23.26;68.89
10992;BME280;5549;47.028;15.514;2022-08-25T08:09:23;96704.59;;;23.29;68.99
10992;BME280;5549;47.028;15.514;2022-08-25T08:11:53;96708.53;;;23.33;68.79
10992;BME280;5549;47.028;15.514;2022-08-25T08:14:23;96702.34;;;23.33;68.69
10992;BME280;5549;47.028;15.514;2022-08-25T08:16:54;96708.94;;;23.37;68.52
10992;BME280;5549;47.028;15.514;2022-08-25T08:19:23;96710.38;;;23.40;68.10
10992;BME280;5549;47.028;15.514;2022-08-25T08:21:50;96707.72;;;23.40;68.09
10992;BME280;5549;47.028;15.514;2022-08-25T08:24:20;96712.84;;;23.48;68.19
10992;BME280;5549;47.028;15.514;2022-08-25T08:26:47;96713.91;;;23.60;68.22
10992;BME280;5549;47.028;15.514;2022-08-25T08:29:15;96721.34;;;23.71;68.11
10992;BME280;5549;47.028;15.514;2022-08-25T08:31:48;96712.25;;;23.79;68.18
10992;BME280;5549;47.028;15.514;2022-08-25T08:34:18;96715.13;;;23.90;68.38
10992;BME280;5549;47.028;15.514;2022-08-25T08:36:45;96706.44;;;24.02;67.75
10992;BME280;5549;47.028;15.514;2022-08-25T08:39:13;96706.41;;;24.15;67.92
10992;BME280;5549;47.028;15.514;2022-08-25T08:41:56;96706.84;;;24.32;68.00
10992;BME280;5549;47.028;15.514;2022-08-25T08:45:03;96711.34;;;24.44;66.52
10992;BME280;5549;47.028;15.514;2022-08-25T08:47:49;96704.31;;;24.43;65.43
10992;BME280;5549;47.028;15.514;2022-08-25T08:50:31;96707.63;;;24.45;65.64
10992;BME280;5549;47.028;15.514;2022-08-25T08:53:06;96705.94;;;24.51;65.82
10992;BME280;5549;47.028;15.514;2022-08-25T08:55:41;96709.25;;;24.53;66.54
10992;BME280;5549;47.028;15.514;2022-08-25T08:58:15;96703.06;;;24.46;66.47
10992;BME280;5549;47.028;15.514;2022-08-25T09:00:47;96705.34;;;24.42;65.65
10992;BME280;5549;47.028;15.514;2022-08-25T09:03:33;96704.97;;;24.39;66.51
10992;BME280;5549;47.028;15.514;2022-08-25T09:06:09;96707.63;;;24.39;66.59
10992;BME280;5549;47.028;15.514;2022-08-25T09:08:41;96709.31;;;24.33;66.56
10992;BME280;5549;47.028;15.514;2022-08-25T09:11:22;96709.31;;;24.26;67.40
10992;BME280;5549;47.028;15.514;2022-08-25T09:14:07;96710.94;;;24.21;66.69
10992;BME280;5549;47.028;15.514;2022-08-25T09:16:44;96719.63;;;24.16;66.88
10992;BME280;5549;47.028;15.514;2022-08-25T09:19:39;96706.00;;;24.11;67.02
10992;BME280;5549;47.028;15.514;2022-08-25T09:22:24;96708.06;;;24.09;66.76
10992;BME280;5549;47.028;15.514;2022-08-25T09:25:04;96709.72;;;24.10;67.00
10992;BME280;5549;47.028;15.514;2022-08-25T09:27:43;96711.16;;;24.13;67.41
10992;BME280;5549;47.028;15.514;2022-08-25T09:30:18;96709.72;;;24.17;67.69
10992;BME280;5549;47.028;15.514;2022-08-25T09:32:51;96705.16;;;24.17;66.71
10992;BME280;5549;47.028;15.514;2022-08-25T09:35:39;96708.66;;;24.18;66.94
10992;BME280;5549;47.028;15.514;2022-08-25T09:38:11;96706.41;;;24.15;67.51
10992;BME280;5549;47.028;15.514;2022-08-25T09:40:46;96703.13;;;24.13;67.65
10992;BME280;5549;47.028;15.514;2022-08-25T09:43:21;96705.19;;;24.11;68.08
10992;BME280;5549;47.028;15.514;2022-08-25T09:45:59;96703.72;;;24.15;68.63
10992;BME280;5549;47.028;15.514;2022-08-25T09:48:30;96699.81;;;24.11;68.67
10992;BME280;5549;47.028;15.514;2022-08-25T09:51:24;96692.81;;;24.10;69.00
10992;BME280;5549;47.028;15.514;2022-08-25T09:53:55;96693.22;;;24.07;69.76
10992;BME280;5549;47.028;15.514;2022-08-25T09:56:27;96691.97;;;24.09;71.14
10992;BME280;5549;47.028;15.514;2022-08-25T09:59:20;96684.56;;;24.05;72.30
10992;BME280;5549;47.028;15.514;2022-08-25T10:01:49;96690.34;;;24.02;71.85
10992;BME280;5549;47.028;15.514;2022-08-25T10:04:25;96691.19;;;23.95;73.24
10992;BME280;5549;47.028;15.514;2022-08-25T10:06:53;96689.13;;;23.97;73.48
10992;BME280;5549;47.028;15.514;2022-08-25T10:09:28;96682.53;;;23.93;74.43
10992;BME280;5549;47.028;15.514;2022-08-25T10:12:01;96677.16;;;23.93;74.03
10992;BME280;5549;47.028;15.514;2022-08-25T10:14:35;96672.38;;;24.02;74.00
10992;BME280;5549;47.028;15.514;2022-08-25T10:17:15;96668.03;;;24.27;73.10
10992;BME280;5549;47.028;15.514;2022-08-25T10:19:54;96664.16;;;24.61;72.57
10992;BME280;5549;47.028;15.514;2022-08-25T10:22:43;96663.66;;;24.78;69.27
10992;BME280;5549;47.028;15.514;2022-08-25T10:25:15;96669.72;;;25.05;69.04
10992;BME280;5549;47.028;15.514;2022-08-25T10:27:56;96670.78;;;25.29;67.70
10992;BME280;5549;47.028;15.514;2022-08-25T10:30:34;96664.94;;;25.38;66.98
10992;BME280;5549;47.028;15.514;2022-08-25T10:33:15;96666.38;;;25.66;68.38
10992;BME280;5549;47.028;15.514;2022-08-25T10:35:57;96651.84;;;25.92;67.00
10992;BME280;5549;47.028;15.514;2022-08-25T10:38:37;96654.41;;;26.05;64.94
10992;BME280;5549;47.028;15.514;2022-08-25T10:41:42;96649.13;;;26.35;66.18
10992;BME280;5549;47.028;15.514;2022-08-25T10:44:23;96644.41;;;26.48;61.25
10992;BME280;5549;47.028;15.514;2022-08-25T10:47:41;96635.22;;;26.68;60.00
10992;BME280;5549;47.028;15.514;2022-08-25T10:50:22;96630.50;;;26.93;61.32
10992;BME280;5549;47.028;15.514;2022-08-25T10:53:17;96630.25;;;26.83;57.00
10992;BME280;5549;47.028;15.514;2022-08-25T10:56:03;96626.69;;;26.71;57.20
10992;BME280;5549;47.028;15.514;2022-08-25T10:58:58;96621.19;;;27.07;57.84
10992;BME280;5549;47.028;15.514;2022-08-25T11:01:49;96614.44;;;27.40;59.91
10992;BME280;5549;47.028;15.514;2022-08-25T11:04:30;96613.38;;;27.53;57.69
10992;BME280;5549;47.028;15.514;2022-08-25T11:07:07;96606.03;;;27.95;57.38
10992;BME280;5549;47.028;15.514;2022-08-25T11:09:39;96601.28;;;28.25;55.71
10992;BME280;5549;47.028;15.514;2022-08-25T11:12:13;96599.00;;;28.46;53.26
10992;BME280;5549;47.028;15.514;2022-08-25T11:14:51;96598.94;;;28.57;53.76
10992;BME280;5549;47.028;15.514;2022-08-25T11:17:25;96595.03;;;28.65;52.08
10992;BME280;5549;47.028;15.514;2022-08-25T11:20:03;96597.44;;;28.78;52.44
10992;BME280;5549;47.028;15.514;2022-08-25T11:22:39;96591.03;;;29.13;53.40
10992;BME280;5549;47.028;15.514;2022-08-25T11:25:17;96580.22;;;29.29;51.06
10992;BME280;5549;47.028;15.514;2022-08-25T11:27:51;96585.63;;;29.46;51.66
10992;BME280;5549;47.028;15.514;2022-08-25T11:30:23;96577.59;;;29.68;52.53
10992;BME280;5549;47.028;15.514;2022-08-25T11:32:53;96578.56;;;29.79;47.86
10992;BME280;5549;47.028;15.514;2022-08-25T11:35:28;96573.16;;;30.00;49.07
10992;BME280;5549;47.028;15.514;2022-08-25T11:38:15;96566.63;;;30.18;47.56
10992;BME280;5549;47.028;15.514;2022-08-25T11:41:03;96564.81;;;30.24;47.41
10992;BME280;5549;47.028;15.514;2022-08-25T11:43:52;96560.00;;;30.31;45.67
10992;BME280;5549;47.028;15.514;2022-08-25T11:46:45;96560.53;;;30.55;45.98
10992;BME280;5549;47.028;15.514;2022-08-25T11:49:51;96565.13;;;30.54;45.81
10992;BME280;5549;47.028;15.514;2022-08-25T11:52:47;96566.25;;;30.31;44.39
10992;BME280;5549;47.028;15.514;2022-08-25T11:55:26;96563.69;;;30.20;46.92
10992;BME280;5549;47.028;15.514;2022-08-25T11:58:32;96559.81;;;29.94;44.96
10992;BME280;5549;47.028;15.514;2022-08-25T12:01:04;96560.81;;;29.88;45.11
10992;BME280;5549;47.028;15.514;2022-08-25T12:03:55;96558.78;;;29.78;44.54
10992;BME280;5549;47.028;15.514;2022-08-25T12:07:24;96556.44;;;29.65;46.49
10992;BME280;5549;47.028;15.514;2022-08-25T12:10:18;96559.06;;;29.43;46.26
10992;BME280;5549;47.028;15.514;2022-08-25T12:13:05;96556.94;;;29.62;46.43
10992;BME280;5549;47.028;15.514;2022-08-25T12:15:59;96548.56;;;29.63;44.72
10992;BME280;5549;47.028;15.514;2022-08-25T12:18:43;96540.59;;;29.74;46.19
10992;BME280;5549;47.028;15.514;2022-08-25T12:21:29;96541.72;;;29.78;45.36
10992;BME280;5549;47.028;15.514;2022-08-25T12:24:11;96543.13;;;29.80;45.11
10992;BME280;5549;47.028;15.514;2022-08-25T12:26:48;96552.25;;;29.96;45.03
10992;BME280;5549;47.028;15.514;2022-08-25T12:29:27;96546.47;;;30.09;44.77
10992;BME280;5549;47.028;15.514;2022-08-25T12:32:29;96549.06;;;30.21;43.01
10992;BME280;5549;47.028;15.514;2022-08-25T12:35:24;96541.75;;;30.21;43.33
10992;BME280;5549;47.028;15.514;2022-08-25T12:38:00;96542.81;;;30.20;44.66
10992;BME280;5549;47.028;15.514;2022-08-25T12:40:37;96550.44;;;30.23;43.59
10992;BME280;5549;47.028;15.514;2022-08-25T12:43:11;96550.88;;;30.37;43.94
10992;BME280;5549;47.028;15.514;2022-08-25T12:45:45;96549.25;;;30.14;43.34
10992;BME280;5549;47.028;15.514;2022-08-25T12:49:04;96553.31;;;29.95;43.52
10992;BME280;5549;47.028;15.514;2022-08-25T12:51:51;96546.53;;;29.92;45.10
10992;BME280;5549;47.028;15.514;2022-08-25T12:54:35;96550.84;;;29.72;44.65
10992;BME280;5549;47.028;15.514;2022-08-25T13:00:18;96533.59;;;29.99;44.92
10992;BME280;5549;47.028;15.514;2022-08-25T13:03:18;96531.50;;;30.02;44.30
10992;BME280;5549;47.028;15.514;2022-08-25T13:06:18;96519.09;;;30.06;43.91
10992;BME280;5549;47.028;15.514;2022-08-25T13:12:17;96523.50;;;30.39;43.53
10992;BME280;5549;47.028;15.514;2022-08-25T13:14:53;96515.94;;;30.41;42.96
10992;BME280;5549;47.028;15.514;2022-08-25T13:17:26;96516.66;;;30.58;43.97
10992;BME280;5549;47.028;15.514;2022-08-25T13:20:17;96519.88;;;30.55;42.75
10992;BME280;5549;47.028;15.514;2022-08-25T13:22:48;96516.50;;;30.43;42.81
10992;BME280;5549;47.028;15.514;2022-08-25T13:25:19;96503.88;;;30.53;42.59
10992;BME280;5549;47.028;15.514;2022-08-25T13:27:55;96511.06;;;30.64;42.66
10992;BME280;5549;47.028;15.514;2022-08-25T13:30:27;96503.19;;;30.63;42.12
10992;BME280;5549;47.028;15.514;2022-08-25T13:32:55;96500.41;;;30.58;43.14
10992;BME280;5549;47.028;15.514;2022-08-25T13:35:28;96496.44;;;30.66;43.16
10992;BME280;5549;47.028;15.514;2022-08-25T13:38:12;96496.22;;;30.45;43.96
10992;BME280;5549;47.028;15.514;2022-08-25T13:40:39;96490.16;;;30.60;44.17
10992;BME280;5549;47.028;15.514;2022-08-25T13:43:12;96491.88;;;30.71;43.52